Time;durP1;ratioP1;P1;durP2;ratioP2;P2;SDS_P1;SDS_P2;PMS_P1;PMS_P2;Temp;Humidity;BMP_temperature;BMP_pressure;BME280_temperature;BME280_humidity;BME280_pressure;Samples;Min_cycle;Max_cycle;Signal;HPM_P1;HPM_P2
2022/01/20 00:03:36;;;;;;;11.63;7.70;;;;;;;;;;20844810;28;20068;-61
2022/01/20 00:34:18;;;;;;;10.32;5.88;;;;;;;;;;20841847;28;20061;-62
2022/01/20 00:44:19;;;;;;;10.00;6.18;;;;;;;;;;20839339;28;20045;-62
2022/01/20 00:54:21;;;;;;;14.25;5.72;;;;;;;;;;20840920;28;20053;-62
2022/01/20 01:04:25;;;;;;;12.52;6.20;;;;;;;;;;20839760;28;20093;-62
2022/01/20 01:14:29;;;;;;;14.55;6.50;;;;;;;;;;21067297;22;20047;-64
2022/01/20 01:24:32;;;;;;;7.93;4.07;;;;;;;;;;20844158;28;20050;-63
2022/01/20 01:34:36;;;;;;;11.23;5.85;;;;;;;;;;20849046;28;20049;-69
2022/01/20 01:44:38;;;;;;;9.15;5.55;;;;;;;;;;20862063;28;20056;-74
2022/01/20 01:54:40;;;;;;;10.60;5.32;;;;;;;;;;20844955;28;20512;-63
2022/01/20 02:04:42;;;;;;;9.10;5.10;;;;;;;;;;20866634;28;20057;-69
2022/01/20 02:24:54;;;;;;;8.70;5.20;;;;;;;;;;20850594;28;20061;-67
2022/01/20 02:34:56;;;;;;;8.13;5.38;;;;;;;;;;20848200;28;20055;-65
2022/01/20 02:45:01;;;;;;;13.77;6.03;;;;;;;;;;20834947;28;20128;-68
2022/01/20 02:55:03;;;;;;;10.98;5.22;;;;;;;;;;20834499;28;20045;-68
2022/01/20 03:05:08;;;;;;;9.32;6.07;;;;;;;;;;20846056;28;20183;-69
2022/01/20 03:15:11;;;;;;;9.40;5.78;;;;;;;;;;20838257;28;20412;-65
2022/01/20 03:25:13;;;;;;;13.43;6.32;;;;;;;;;;20834017;28;20041;-66
2022/01/20 03:35:16;;;;;;;8.57;5.07;;;;;;;;;;20834028;28;20061;-64
2022/01/20 03:45:26;;;;;;;8.63;4.22;;;;;;;;;;20835329;28;20052;-65
2022/01/20 03:55:48;;;;;;;7.07;4.70;;;;;;;;;;20838217;28;20489;-67
2022/01/20 04:06:09;;;;;;;8.50;4.30;;;;;;;;;;20831609;28;20046;-67
2022/01/20 04:16:24;;;;;;;5.88;3.95;;;;;;;;;;20834937;28;20093;-65
2022/01/20 04:26:35;;;;;;;8.50;4.43;;;;;;;;;;20846349;28;20395;-64
2022/01/20 04:36:43;;;;;;;10.70;4.55;;;;;;;;;;20856065;28;20498;-64
2022/01/20 04:47:03;;;;;;;7.65;4.10;;;;;;;;;;20845012;28;20096;-63
2022/01/20 05:07:22;;;;;;;7.35;3.80;;;;;;;;;;20852020;28;20497;-63
2022/01/20 05:17:24;;;;;;;;;;;;;;;;;;20886132;28;20053;-64
2022/01/20 05:27:26;;;;;;;8.05;4.20;;;;;;;;;;20847537;28;19921;-64
2022/01/20 05:37:30;;;;;;;6.82;3.92;;;;;;;;;;20848441;28;20057;-64
2022/01/20 05:47:43;;;;;;;6.75;3.72;;;;;;;;;;20859931;28;20049;-63
2022/01/20 05:57:46;;;;;;;6.97;4.13;;;;;;;;;;20855886;28;20481;-63
2022/01/20 06:07:50;;;;;;;5.73;3.70;;;;;;;;;;20838732;28;20143;-64
2022/01/20 06:17:52;;;;;;;7.60;3.95;;;;;;;;;;20840550;28;20061;-63
2022/01/20 06:27:55;;;;;;;7.28;4.25;;;;;;;;;;20837848;28;20061;-63
2022/01/20 06:37:58;;;;;;;6.55;4.13;;;;;;;;;;20840052;28;20052;-62
2022/01/20 06:48:03;;;;;;;;;;;;;;;;;;20838428;28;20053;-66
2022/01/20 06:58:04;;;;;;;8.38;4.65;;;;;;;;;;20847702;28;19929;-65
2022/01/20 07:08:06;;;;;;;7.35;3.63;;;;;;;;;;20846012;28;20053;-65
2022/01/20 07:18:10;;;;;;;9.55;4.88;;;;;;;;;;20843949;28;20057;-62
2022/01/20 07:28:12;;;;;;;11.60;4.60;;;;;;;;;;20849603;28;20058;-70
2022/01/20 07:38:15;;;;;;;7.95;4.72;;;;;;;;;;20868341;28;20490;-62
2022/01/20 07:48:16;;;;;;;9.00;4.43;;;;;;;;;;20838380;28;20056;-66
2022/01/20 07:58:18;;;;;;;7.55;4.10;;;;;;;;;;20853041;28;20133;-62
2022/01/20 08:08:22;;;;;;;32.70;5.68;;;;;;;;;;20857097;28;20495;-64
2022/01/20 08:18:24;;;;;;;8.38;4.60;;;;;;;;;;20867978;28;20060;-63
2022/01/20 08:28:46;;;;;;;8.88;4.97;;;;;;;;;;20858712;28;20103;-63
2022/01/20 08:38:48;;;;;;;9.70;5.85;;;;;;;;;;20855640;28;20060;-63
2022/01/20 08:48:51;;;;;;;10.02;5.50;;;;;;;;;;20864096;28;20050;-71
2022/01/20 08:58:54;;;;;;;11.00;6.93;;;;;;;;;;20863555;28;20452;-62
2022/01/20 09:08:56;;;;;;;15.35;8.50;;;;;;;;;;20864876;28;20460;-71
2022/01/20 09:18:58;;;;;;;12.57;5.90;;;;;;;;;;20849998;28;20061;-73
2022/01/20 09:29:01;;;;;;;10.13;5.53;;;;;;;;;;20863349;28;20053;-74
2022/01/20 09:39:03;;;;;;;14.90;5.93;;;;;;;;;;20881038;28;20049;-67
2022/01/20 09:49:05;;;;;;;14.48;5.93;;;;;;;;;;20872459;28;20049;-71
2022/01/20 09:59:08;;;;;;;15.27;6.18;;;;;;;;;;20840906;28;20081;-68
2022/01/20 10:09:10;;;;;;;18.58;7.60;;;;;;;;;;20837969;28;20191;-69
2022/01/20 10:19:21;;;;;;;11.60;6.20;;;;;;;;;;20834402;28;20111;-67
2022/01/20 10:29:23;;;;;;;15.27;5.80;;;;;;;;;;20834311;28;20049;-63
2022/01/20 10:39:35;;;;;;;12.85;5.32;;;;;;;;;;20832446;28;20099;-63
2022/01/20 10:49:37;;;;;;;10.27;5.15;;;;;;;;;;20832355;28;20095;-62
2022/01/20 10:59:52;;;;;;;11.85;4.53;;;;;;;;;;20831224;28;20046;-63
2022/01/20 11:10:06;;;;;;;12.48;7.35;;;;;;;;;;20822828;28;20067;-57
2022/01/20 11:20:12;;;;;;;9.98;4.45;;;;;;;;;;20828417;28;20076;-60
2022/01/20 11:30:17;;;;;;;8.00;2.97;;;;;;;;;;20827921;28;20057;-54
2022/01/20 11:40:21;;;;;;;3.97;1.70;;;;;;;;;;20800218;28;20072;-52
2022/01/20 11:50:23;;;;;;;5.93;2.15;;;;;;;;;;20828237;28;20137;-55
2022/01/20 12:00:27;;;;;;;7.82;1.92;;;;;;;;;;20827960;28;20049;-55
2022/01/20 12:10:30;;;;;;;3.37;1.30;;;;;;;;;;20825356;28;20433;-56
2022/01/20 12:20:35;;;;;;;2.78;1.33;;;;;;;;;;20826221;28;20095;-55
2022/01/20 12:30:47;;;;;;;4.97;1.40;;;;;;;;;;20825517;28;20138;-56
2022/01/20 12:40:59;;;;;;;4.82;1.38;;;;;;;;;;20833302;28;20103;-53
2022/01/20 12:51:04;;;;;;;3.53;1.27;;;;;;;;;;20839804;28;20053;-53
2022/01/20 13:01:06;;;;;;;3.10;1.13;;;;;;;;;;20839148;28;20072;-56
2022/01/20 13:11:12;;;;;;;4.90;1.25;;;;;;;;;;20836988;28;20061;-62
2022/01/20 13:21:15;;;;;;;2.33;0.80;;;;;;;;;;20836765;28;20102;-56
2022/01/20 13:31:18;;;;;;;1.83;0.82;;;;;;;;;;20835655;28;20045;-54
2022/01/20 13:41:22;;;;;;;3.97;0.95;;;;;;;;;;20835163;28;20046;-60
2022/01/20 13:51:27;;;;;;;3.72;1.35;;;;;;;;;;20834495;28;20061;-56
2022/01/20 14:01:28;;;;;;;3.28;0.73;;;;;;;;;;20834811;28;20047;-56
2022/01/20 14:11:30;;;;;;;2.22;0.63;;;;;;;;;;20833272;28;20111;-56
2022/01/20 14:21:32;;;;;;;1.15;0.70;;;;;;;;;;20833359;28;20148;-57
2022/01/20 14:31:34;;;;;;;1.17;0.80;;;;;;;;;;20831982;28;20143;-57
2022/01/20 14:41:37;;;;;;;2.13;1.10;;;;;;;;;;20831475;28;20046;-57
2022/01/20 14:51:39;;;;;;;1.25;0.57;;;;;;;;;;20831035;28;20053;-59
2022/01/20 15:01:41;;;;;;;2.22;0.80;;;;;;;;;;20830294;28;20053;-58
2022/01/20 15:11:43;;;;;;;2.10;0.70;;;;;;;;;;20829615;28;20049;-57
2022/01/20 15:21:45;;;;;;;2.03;0.70;;;;;;;;;;20830955;28;20045;-56
2022/01/20 15:31:47;;;;;;;3.03;0.80;;;;;;;;;;20829085;28;20045;-57
2022/01/20 15:41:50;;;;;;;1.50;0.90;;;;;;;;;;20828487;28;20107;-56
2022/01/20 15:51:51;;;;;;;2.55;0.80;;;;;;;;;;20827608;28;20089;-58
2022/01/20 16:01:55;;;;;;;2.38;0.60;;;;;;;;;;20827017;28;20129;-59
2022/01/20 16:11:57;;;;;;;2.15;0.70;;;;;;;;;;20828448;28;20567;-57
2022/01/20 16:21:59;;;;;;;2.45;0.90;;;;;;;;;;20841280;28;20045;-59
2022/01/20 16:32:02;;;;;;;2.75;1.20;;;;;;;;;;20839464;28;20057;-59
2022/01/20 16:42:04;;;;;;;2.97;1.58;;;;;;;;;;20840132;28;20111;-58
2022/01/20 16:52:06;;;;;;;2.20;1.15;;;;;;;;;;20839390;28;20053;-61
2022/01/20 17:02:08;;;;;;;1.70;0.82;;;;;;;;;;20838021;28;20103;-59
2022/01/20 17:12:12;;;;;;;1.88;0.98;;;;;;;;;;20836639;28;20053;-58
2022/01/20 17:22:15;;;;;;;2.00;0.97;;;;;;;;;;20835822;28;20127;-59
2022/01/20 17:32:18;;;;;;;3.35;1.08;;;;;;;;;;20836585;28;20053;-60
2022/01/20 17:42:19;;;;;;;2.35;1.40;;;;;;;;;;20836333;28;20041;-60
2022/01/20 17:52:21;;;;;;;3.40;1.10;;;;;;;;;;20834346;28;20057;-58
2022/01/20 18:02:23;;;;;;;3.72;1.00;;;;;;;;;;20834047;28;20069;-58
2022/01/20 18:12:26;;;;;;;3.70;1.23;;;;;;;;;;20832354;28;20053;-57
2022/01/20 18:22:29;;;;;;;2.63;0.98;;;;;;;;;;20832936;28;20041;-59
2022/01/20 18:32:31;;;;;;;1.92;1.13;;;;;;;;;;20832471;28;20083;-59
2022/01/20 18:42:32;;;;;;;1.85;1.17;;;;;;;;;;20831696;28;20152;-54
2022/01/20 18:52:35;;;;;;;4.03;1.50;;;;;;;;;;20822835;28;20042;-57
2022/01/20 19:02:37;;;;;;;3.08;1.30;;;;;;;;;;20749226;28;20132;-58
2022/01/20 19:12:40;;;;;;;1.98;1.00;;;;;;;;;;20748514;28;20046;-57
2022/01/20 19:22:42;;;;;;;2.38;1.30;;;;;;;;;;20747971;28;20058;-58
2022/01/20 19:32:45;;;;;;;4.05;1.65;;;;;;;;;;20748679;28;20133;-58
2022/01/20 19:42:47;;;;;;;4.97;1.55;;;;;;;;;;20793882;28;20081;-59
2022/01/20 19:52:50;;;;;;;2.53;1.38;;;;;;;;;;20841441;28;20187;-60
2022/01/20 20:02:52;;;;;;;2.88;1.02;;;;;;;;;;20846520;28;20103;-61
2022/01/20 20:12:54;;;;;;;1.65;0.93;;;;;;;;;;20842778;28;20059;-61
2022/01/20 20:22:57;;;;;;;3.25;1.15;;;;;;;;;;20842222;28;20551;-57
2022/01/20 20:32:59;;;;;;;2.75;1.00;;;;;;;;;;20841037;28;20053;-57
2022/01/20 20:43:00;;;;;;;2.28;1.60;;;;;;;;;;20837589;28;20045;-57
2022/01/20 20:53:03;;;;;;;2.75;1.30;;;;;;;;;;20840819;28;20095;-62
2022/01/20 21:03:04;;;;;;;2.40;1.27;;;;;;;;;;20840452;28;20421;-59
2022/01/20 21:13:06;;;;;;;2.45;1.00;;;;;;;;;;20839092;28;20057;-65
2022/01/20 21:23:09;;;;;;;2.25;1.30;;;;;;;;;;20839420;28;20056;-63
2022/01/20 21:33:10;;;;;;;4.68;1.10;;;;;;;;;;20839322;28;20497;-59
2022/01/20 21:43:13;;;;;;;4.47;1.40;;;;;;;;;;20838727;28;20080;-56
2022/01/20 21:53:15;;;;;;;3.13;1.13;;;;;;;;;;20836868;28;20061;-59
2022/01/20 22:03:18;;;;;;;1.95;1.10;;;;;;;;;;20835221;28;20045;-58
2022/01/20 22:13:25;;;;;;;2.50;1.30;;;;;;;;;;20836280;28;20112;-57
2022/01/20 22:23:27;;;;;;;2.28;1.00;;;;;;;;;;20835519;28;20045;-65
2022/01/20 22:33:29;;;;;;;2.25;1.27;;;;;;;;;;20833547;28;20060;-60
2022/01/20 22:43:31;;;;;;;2.33;0.88;;;;;;;;;;20833063;28;20060;-58
2022/01/20 22:53:34;;;;;;;1.83;0.80;;;;;;;;;;20832322;28;20053;-63
2022/01/20 23:03:37;;;;;;;1.50;1.00;;;;;;;;;;20833044;28;20049;-58
2022/01/20 23:13:39;;;;;;;1.67;0.88;;;;;;;;;;20831148;28;20064;-58
2022/01/20 23:23:45;;;;;;;1.60;0.90;;;;;;;;;;20829789;28;20049;-56
2022/01/20 23:33:49;;;;;;;1.60;0.77;;;;;;;;;;20831304;28;20136;-56
2022/01/20 23:53:54;;;;;;;1.58;0.93;;;;;;;;;;20829518;28;20057;-57
